• Join FlightAware (Why Join?)
  • Login
  • US Flag 
11:32AM EDT


 

Airport Tracker/Info


-or-


 

Live Flight TrackerFlight Track Log ✈ SWA378 ✈ 02-May-2013 ✈ KLAX - KATL

Flight Track Log - Related Links

Times and Time Zones

All times are in EDT time to prevent confusion due to time zone crossing. See the SWA378 flight status page for this flight to view local times or setup timezone preferences in your user account.

Time Position Orientation Groundspeed Altitude Reporting Facility
EDT Latitude Longitude Course Direction KTS MPH feet Rate Location/Type
01:31PM 33.9167 -118.5167 231° Southwest 240 276 2,900  Level Southern California TRACON
01:32PM 33.8500 -118.5167 180° South 271 312 5,100 2,160 Climbing Southern California TRACON
01:34PM 33.7647 -118.5206 182° South 275 316 7,800 2,340 Climbing Los Angeles Center
01:35PM 33.6839 -118.4794 157° South 294 338 10,500 2,160 Climbing Los Angeles Center
01:36PM 33.6398 -118.3629 121° Southeast  Level FlightAware Approximate
01:36PM 33.6739 -118.3761 97° East 313 360 12,300  Level Los Angeles Center
01:37PM 33.6744 -118.2658 90° East 340 391 14,300 2,340 Climbing Los Angeles Center
01:38PM 33.6725 -118.1194 91° East 370 426 17,200 2,340 Climbing Los Angeles Center
01:39PM 33.6706 -117.9914 91° East 383 441 19,200 1,920 Climbing Los Angeles Center
01:40PM 33.6681 -117.8572 91° East 400 460 21,200 1,740 Climbing Los Angeles Center
01:41PM 33.6664 -117.7444 91° East 418 481 22,800 1,860 Climbing Los Angeles Center
01:42PM 33.6625 -117.5706 91° East 435 501 25,100 1,920 Climbing Los Angeles Center
01:43PM 33.6619 -117.4217 90° East 445 512 26,800 1,680 Climbing Los Angeles Center
01:44PM 33.6581 -117.2394 91° East 454 522 28,600 1,440 Climbing Los Angeles Center
01:45PM 33.6533 -117.0844 92° East 463 533 29,900 1,380 Climbing Los Angeles Center
01:46PM 33.6497 -116.9264 92° East 472 543 31,500 1,380 Climbing Los Angeles Center
01:47PM 33.6464 -116.7753 91° East 474 545 32,800 1,380 Climbing Los Angeles Center
01:48PM 33.6397 -116.5867 92° East 471 542 34,400 1,020 Climbing Los Angeles Center
01:49PM 33.6361 -116.4294 92° East 472 543 35,000 240 Climbing Los Angeles Center
01:50PM 33.6314 -116.2719 92° East 473 544 35,000 300 Level Los Angeles Center
01:51PM 33.6264 -116.1144 92° East 472 543 35,700 780 Climbing Los Angeles Center
01:52PM 33.6211 -115.9583 92° East 468 539 36,700 600 Climbing Los Angeles Center
01:53PM 33.6161 -115.8039 92° East 464 534 37,000 120 Climbing Los Angeles Center
01:54PM 33.6108 -115.6467 92° East 469 540 37,000  Level Los Angeles Center
01:55PM 33.6036 -115.4589 93° East 469 540 37,000  Level Los Angeles Center
01:56PM 33.5981 -115.3028 92° East 469 540 37,000  Level Los Angeles Center
01:58PM 33.5919 -115.1469 93° East 469 540 37,000  Level Los Angeles Center
01:59PM 33.5856 -114.9917 93° East 468 539 37,000  Level Los Angeles Center
02:00PM 33.5814 -114.8342 92° East 471 542 37,000  Level Los Angeles Center
02:01PM 33.5742 -114.6767 93° East 474 545 37,000  Level Los Angeles Center
02:02PM 33.5653 -114.4556 93° East 474 545 37,000  Level Los Angeles Center
02:03PM 33.5597 -114.3019 92° East 478 550 37,000  Level Albuquerque Center
02:04PM 33.5519 -114.1436 93° East 477 549 37,000  Level Albuquerque Center
02:05PM 33.5483 -113.9850 92° East 477 549 37,000  Level Albuquerque Center
02:06PM 33.5814 -113.8306 76° East 477 549 37,000  Level Albuquerque Center
02:07PM 33.6189 -113.6789 73° East 476 548 37,000  Level Albuquerque Center
02:08PM 33.6550 -113.5275 74° East 473 544 37,000  Level Albuquerque Center
02:09PM 33.6978 -113.3450 74° East 473 544 37,000  Level Albuquerque Center
02:10PM 33.7342 -113.1922 74° East 474 545 37,000  Level Albuquerque Center
02:11PM 33.7689 -113.0419 74° East 471 542 37,000  Level Albuquerque Center
02:12PM 33.8097 -112.8694 74° East 475 547 37,000  Level Albuquerque Center
02:13PM 33.8439 -112.7181 75° East 471 542 37,000  Level Albuquerque Center
02:14PM 33.8817 -112.5531 75° East 474 545 37,000  Level Albuquerque Center
02:15PM 33.9167 -112.4011 74° East 472 543 37,000  Level Albuquerque Center
02:16PM 33.9519 -112.2467 75° East 477 549 37,000  Level Albuquerque Center
02:17PM 33.9889 -112.0803 75° East 478 550 37,000  Level Albuquerque Center
02:18PM 34.0236 -111.9261 75° East 476 548 37,000  Level Albuquerque Center
02:19PM 34.0644 -111.7744 72° East 480 552 37,000  Level Albuquerque Center
02:20PM 34.1333 -111.6297 60° Northeast 464 534 37,000  Level Albuquerque Center
02:21PM 34.1975 -111.4953 60° Northeast 463 533 37,000  Level Albuquerque Center
02:22PM 34.2481 -111.3786 62° Northeast 460 529 37,000  Level Albuquerque Center
02:23PM 34.2750 -111.1861 80° East 475 547 37,000  Level Albuquerque Center
02:24PM 34.2981 -111.0219 80° East 478 550 37,000  Level Albuquerque Center
02:26PM 34.3186 -110.8619 81° East 483 556 37,000  Level Albuquerque Center
02:27PM 34.3386 -110.7125 81° East 481 554 37,000  Level Albuquerque Center
02:28PM 34.3622 -110.5331 81° East 482 555 37,000  Level Albuquerque Center
02:29PM 34.3822 -110.3778 81° East 487 560 37,000  Level Albuquerque Center
02:30PM 34.4064 -110.1983 81° East 486 559 37,000  Level Albuquerque Center
02:31PM 34.4258 -110.0444 81° East 485 558 37,000  Level Albuquerque Center
02:32PM 34.4492 -109.8631 81° East 487 560 37,000  Level Albuquerque Center
02:33PM 34.4681 -109.7069 82° East 489 563 37,000  Level Albuquerque Center
02:34PM 34.4903 -109.5261 81° East 488 562 37,000  Level Albuquerque Center
02:35PM 34.5092 -109.3722 81° East 486 559 37,000  Level Albuquerque Center
02:36PM 34.5275 -109.2197 82° East 482 555 37,000  Level Albuquerque Center
02:37PM 34.5492 -109.0419 82° East 480 552 37,000  Level Albuquerque Center
02:38PM 34.5672 -108.8903 82° East 477 549 37,000  Level Albuquerque Center
02:39PM 34.5889 -108.7106 82° East 480 552 37,000  Level Albuquerque Center
02:40PM 34.6058 -108.5561 82° East 483 556 37,000  Level Albuquerque Center
02:41PM 34.6283 -108.3742 81° East 486 559 37,000  Level Albuquerque Center
02:42PM 34.6458 -108.2119 82° East 487 560 37,000  Level Albuquerque Center
02:43PM 34.6628 -108.0500 83° East 485 558 37,000  Level Albuquerque Center
02:44PM 34.6825 -107.8822 82° East 488 562 37,000  Level Albuquerque Center
02:45PM 34.6983 -107.7258 83° East 485 558 37,000  Level Albuquerque Center
02:46PM 34.7161 -107.5650 82° East 482 555 37,000  Level Albuquerque Center
02:47PM 34.7317 -107.4044 83° East 481 554 37,000  Level Albuquerque Center
02:48PM 34.7519 -107.2114 83° East 482 555 37,000  Level Albuquerque Center
02:49PM 34.7683 -107.0492 83° East 487 560 37,000  Level Albuquerque Center
02:50PM 34.7844 -106.8872 83° East 488 562 37,000  Level Albuquerque Center
02:51PM 34.8003 -106.7239 83° East 492 566 37,000  Level Albuquerque Center
02:52PM 34.8158 -106.5611 83° East 493 567 37,000  Level Albuquerque Center
02:53PM 34.8350 -106.3661 83° East 488 562 37,000  Level Albuquerque Center
02:54PM 34.8511 -106.2022 83° East 490 564 37,000  Level Albuquerque Center
02:55PM 34.8644 -106.0372 84° East 493 567 37,000  Level Albuquerque Center
02:56PM 34.8811 -105.8586 83° East 493 567 37,000  Level Albuquerque Center
02:57PM 34.8975 -105.6906 83° East 495 570 37,000  Level Albuquerque Center
02:58PM 34.9131 -105.5217 84° East 498 573 37,000  Level Albuquerque Center
03:00PM 34.9281 -105.3542 84° East 494 568 37,000  Level Albuquerque Center
03:01PM 34.9453 -105.1558 84° East 499 574 37,000  Level Albuquerque Center
03:02PM 34.9603 -104.9850 84° East 502 578 37,000  Level Albuquerque Center
03:03PM 34.9750 -104.8144 84° East 504 580 37,000  Level Albuquerque Center
03:04PM 34.9886 -104.6439 84° East 504 580 37,000  Level Albuquerque Center
03:05PM 35.0031 -104.4744 84° East 501 577 37,000  Level Albuquerque Center
03:06PM 35.0153 -104.3056 85° East 500 575 37,000  Level Albuquerque Center
03:07PM 35.0300 -104.1369 84° East 503 579 37,000  Level Albuquerque Center
03:08PM 35.0450 -103.9408 85° East 501 577 37,000  Level Albuquerque Center
03:09PM 35.0581 -103.7722 85° East 499 574 37,000  Level Albuquerque Center
03:10PM 35.0706 -103.6042 85° East 496 571 37,000  Level Albuquerque Center
03:11PM 35.0822 -103.4353 85° East 496 571 37,000  Level Albuquerque Center
03:12PM 35.0950 -103.2683 85° East 493 567 37,000  Level Albuquerque Center
03:13PM 35.1067 -103.1006 85° East 493 567 37,000  Level Albuquerque Center
03:14PM 35.1186 -102.9211 85° East 494 568 37,000  Level Albuquerque Center
03:15PM 35.1294 -102.7525 85° East 498 573 37,000  Level Albuquerque Center
03:16PM 35.1403 -102.5831 85° East 501 577 37,000  Level Albuquerque Center
03:17PM 35.1508 -102.4125 86° East 504 580 37,000  Level Albuquerque Center
03:18PM 35.1675 -102.2094 84° East 503 579 37,000  Level Albuquerque Center
03:19PM 35.1936 -102.0408 79° East 504 580 37,000  Level Albuquerque Center
03:20PM 35.2183 -101.8797 79° East 502 578 37,000  Level Albuquerque Center
03:21PM 35.2453 -101.7100 79° East 503 579 37,000  Level Albuquerque Center
03:22PM 35.2714 -101.5394 79° East 506 582 37,000  Level Albuquerque Center
03:23PM 35.3014 -101.3383 80° East 509 586 37,000  Level Albuquerque Center
03:24PM 35.3022 -101.1747 90° East 512 589 37,000  Level Albuquerque Center
03:25PM 35.3058 -101.0019 88° East 510 587 37,000  Level Albuquerque Center
03:26PM 35.3086 -100.8281 89° East 511 588 37,000  Level Albuquerque Center
03:27PM 35.3111 -100.6558 89° East 509 586 37,000  Level Albuquerque Center
03:28PM 35.3147 -100.4500 89° East 507 583 37,000  Level Albuquerque Center
03:29PM 35.3161 -100.2789 89° East 505 581 37,000  Level Albuquerque Center
03:30PM 35.3189 -100.1081 89° East 504 580 37,000  Level Albuquerque Center
03:31PM 35.3194 -99.9394 90° East 499 574 37,000  Level Albuquerque Center
03:32PM 35.3222 -99.7714 89° East 496 571 37,000  Level Albuquerque Center
03:34PM 35.3239 -99.6039 89° East 494 568 37,000  Level Albuquerque Center
03:35PM 35.3247 -99.4036 90° East 491 565 37,000  Level Albuquerque Center
03:36PM 35.3264 -99.2367 89° East 493 567 37,000  Level Albuquerque Center
03:37PM 35.3272 -99.0683 90° East 494 568 37,000  Level Albuquerque Center
03:38PM 35.3272 -98.9011 90° East 492 566 37,000  Level Albuquerque Center
03:39PM 35.3272 -98.7347 90° East 491 565 37,000  Level Albuquerque Center
03:40PM 35.3258 -98.5533 90° East 493 567 37,000  Level Fort Worth Center
03:41PM 35.3253 -98.3856 90° East 493 567 37,000  Level Fort Worth Center
03:42PM 35.3244 -98.2203 90° East 493 567 37,000  Level Fort Worth Center
03:43PM 35.3253 -98.0522 90° East 493 567 37,000  Level Fort Worth Center
03:44PM 35.3239 -97.8894 91° East 493 567 37,000  Level Fort Worth Center
03:45PM 35.3225 -97.7214 91° East 493 567 37,000  Level Fort Worth Center
03:46PM 35.3186 -97.5586 92° East 488 562 37,000  Level Fort Worth Center
03:47PM 35.3144 -97.3753 92° East 488 562 37,000  Level Fort Worth Center
03:48PM 35.3142 -97.2000 90° East 494 568 37,000  Level Fort Worth Center
03:49PM 35.3139 -97.0369 90° East 494 568 37,000 360 Level Fort Worth Center
03:50PM 35.3111 -96.8742 91° East 488 562 37,800 900 Climbing Fort Worth Center
03:51PM 35.3083 -96.7114 91° East 481 554 38,900 600 Climbing Fort Worth Center
03:52PM 35.3053 -96.5486 91° East 476 548 39,000  Climbing Fort Worth Center
03:53PM 35.3039 -96.3858 91° East 476 548 39,000  Level Fort Worth Center
03:54PM 35.2983 -96.2206 92° East 476 548 39,000  Level Fort Worth Center
03:55PM 35.2967 -96.0578 91° East 476 548 39,000  Level Fort Worth Center
03:56PM 35.2906 -95.8900 93° East 476 548 39,000  Level Fort Worth Center
03:57PM 35.2906 -95.7297 90° East 476 548 39,000  Level Fort Worth Center
03:58PM 35.2864 -95.5647 92° East 476 548 39,000  Level Fort Worth Center
03:59PM 35.2800 -95.3678 92° East 476 548 39,000  Level Memphis Center
04:00PM 35.2761 -95.2022 92° East 482 555 39,000  Level Memphis Center
04:01PM 35.2703 -95.0339 92° East 482 555 39,000  Level Memphis Center
04:02PM 35.2656 -94.8733 92° East 482 555 39,000  Level Memphis Center
04:03PM 35.2592 -94.7053 93° East 482 555 39,000  Level Memphis Center
04:04PM 35.2550 -94.5169 91° East 488 562 39,000  Level Memphis Center
04:05PM 35.2478 -94.3564 93° East 488 562 39,000  Level Memphis Center
04:06PM 35.2428 -94.1908 92° East 483 556 39,000  Level Memphis Center
04:07PM 35.2372 -94.0256 92° East 483 556 39,000  Level Memphis Center
04:08PM 35.2292 -93.8650 93° East 483 556 39,000  Level Memphis Center
04:09PM 35.2233 -93.7019 92° East 478 550 39,000  Level Memphis Center
04:10PM 35.2192 -93.5392 92° East 478 550 39,000  Level Memphis Center
04:11PM 35.2108 -93.3789 94° East 478 550 39,000  Level Memphis Center
04:12PM 35.2042 -93.2211 93° East 478 550 39,000  Level Memphis Center
04:13PM 35.1972 -93.0581 93° East 478 550 39,000  Level Memphis Center
04:14PM 35.1881 -92.8953 94° East 478 550 39,000  Level Memphis Center
04:15PM 35.1808 -92.7325 93° East 478 550 39,000  Level Memphis Center
04:16PM 35.1733 -92.5822 93° East 482 555 39,000  Level Memphis Center
04:17PM 35.1656 -92.4247 93° East 482 555 39,000  Level Memphis Center
04:18PM 35.1556 -92.2594 94° East 476 548 39,000  Level Memphis Center
04:19PM 35.1475 -92.0992 93° East 481 554 39,000  Level Memphis Center
04:20PM 35.1372 -91.9414 95° East 481 554 39,000  Level Memphis Center
04:21PM 35.1308 -91.7789 93° East 481 554 39,000  Level Memphis Center
04:22PM 35.1219 -91.6189 94° East 476 548 39,000  Level Memphis Center
04:23PM 35.1108 -91.4639 95° East 476 548 39,000  Level Memphis Center
04:24PM 35.1061 -91.2936 92° East 459 528 39,000  Level Memphis Center
04:25PM 35.0967 -91.1389 94° East 454 522 39,000  Level Memphis Center
04:26PM 35.0850 -90.9839 95° East 459 528 39,000  Level Memphis Center
04:27PM 35.0753 -90.8289 94° East 464 534 39,000  Level Memphis Center
04:28PM 35.0653 -90.6817 95° East 450 518 39,000  Level Memphis Center
04:29PM 35.0553 -90.5472 95° East 444 511 39,000  Level Memphis Center
04:30PM 35.0469 -90.3978 94° East 438 504 39,000  Level Memphis Center
04:31PM 35.0344 -90.2481 96° East 444 511 39,000  Level Memphis Center
04:32PM 35.0258 -90.1008 94° East 444 511 39,000  Level Memphis Center
04:33PM 35.0150 -89.9514 95° East 444 511 39,000  Level Memphis Center
04:34PM 34.9914 -89.7867 100° East 444 511 39,000  Level Memphis Center
04:35PM 34.9697 -89.6297 100° East 459 528 39,000  Level Memphis Center
04:36PM 34.9436 -89.4831 102° East 453 521 39,000  Level Memphis Center
04:37PM 34.9197 -89.3339 101° East 446 513 39,000  Level Memphis Center
04:38PM 34.8997 -89.2050 101° East 446 513 39,000  Level Memphis Center
04:39PM 34.8772 -89.0533 100° East 446 513 39,000 -360 Level Memphis Center
04:41PM 34.8426 -88.8297 101° East  Level FlightAware Approximate
04:44PM 34.7586 -88.2969 101° East 441 507 37,000  Level Memphis Center
04:46PM 34.7000 -88.0812 108° East  Level Estimated
04:46PM 34.7092 -87.9847 109° East 472 543 35,500  Level Memphis Center
04:47PM 34.6853 -87.8314 101° East 466 536 34,700 -960 Descending Memphis Center
04:48PM 34.6719 -87.7648 101° East  Level FlightAware Approximate
04:48PM 34.6569 -87.6758 102° East 466 536 33,600  Level Memphis Center
04:49PM 34.6467 -87.6131 101° East  Level FlightAware Approximate
04:49PM 34.6369 -87.5300 99° East 456 525 33,000  Level Memphis Center
04:51PM 34.5961 -87.3039 102° East 455 524 33,000  Level Atlanta Center
04:52PM 34.5667 -87.1542 103° East 455 524 33,000  Level Atlanta Center
04:53PM 34.4151 -87.0556 108° East  Level Estimated
04:53PM 34.5372 -86.9992 103° East 455 524 33,000  Level Atlanta Center
04:54PM 34.3737 -86.9097 109° East  Level Estimated
04:54PM 34.5072 -86.8469 103° East 455 524 33,000  Level Atlanta Center
04:55PM 34.4753 -86.6972 104° East 455 524 32,500 -900 Descending Atlanta Center
04:56PM 34.4447 -86.5628 105° East 455 524 31,300 -1,440 Descending Atlanta Center
04:57PM 34.4100 -86.4106 105° East 460 529 29,700 -1,560 Descending Atlanta Center
04:58PM 34.3775 -86.2611 105° East 460 529 28,200 -1,560 Descending Atlanta Center
04:59PM 34.3425 -86.1092 106° East 460 529 26,600 -1,440 Descending Atlanta Center
05:00PM 34.3094 -85.9653 106° East 453 521 25,400 -1,200 Descending Atlanta Center
05:01PM 34.2800 -85.8311 105° East 431 496 24,300 -1,140 Descending Atlanta Center
05:02PM 34.2464 -85.6922 106° East 404 465 23,200 -1,560 Descending Atlanta Center
05:03PM 34.2169 -85.5636 105° East 398 458 21,200 -2,040 Descending Atlanta Center
05:04PM 34.1869 -85.4425 107° East 386 444 19,200 -1,980 Descending Atlanta Center
05:05PM 34.1611 -85.3242 105° East 375 432 17,300 -2,100 Descending Atlanta Center
05:06PM 34.1331 -85.2083 106° East 363 418 15,100 -2,040 Descending Atlanta Center
05:07PM 34.1069 -85.0975 106° East 352 405 13,300 -1,080 Descending Atlanta Center
05:08PM 34.0722 -85.0019 114° Southeast 326 375 13,000 -1,200 Descending Atlanta Center
05:09PM 34.0186 -84.9311 132° Southeast 296 341 11,000 -1,980 Descending Atlanta Center
05:10PM 33.9628 -84.8628 135° Southeast 283 326 9,100 -1,020 Descending Atlanta Center
05:11PM 33.9003 -84.8247 153° Southeast 262 302 9,000 -900 Descending Atlanta Center
05:12PM 33.8275 -84.8039 167° South 262 302 7,300 -1,740 Descending Atlanta Center
05:13PM 33.7544 -84.7883 170° South 272 313 5,600 -1,620 Descending Atlanta Center
05:14PM 33.6897 -84.7678 165° South 260 299 4,100 -1,320 Descending Atlanta Center
05:14PM 33.6833 -84.7500 113° Southeast 243 280 4,000 -900 Descending Atlanta TRACON
05:15PM 33.6500 -84.7000 129° Southeast 220 253 3,100 -540 Descending Atlanta TRACON
05:16PM 33.6500 -84.6333 90° East 171 197 3,000 -60 Descending Atlanta TRACON
05:17PM 33.6500 -84.5833 90° East 163 188 3,000 -300 Level Atlanta TRACON
05:18PM 33.6500 -84.5333 90° East 142 163 2,500 -600 Descending Atlanta TRACON
05:19PM 33.6500 -84.4833 90° East 133 153 1,800 -720 Descending Atlanta TRACON
05:20PM 33.6500 -84.4500 90° East 123 142 1,200 -720 Descending Atlanta TRACON
05:22PM 33.6367 -84.4279 North  Level Estimated